Terminal Aerodrome Forecast
Issued by NWS Wakefield, VA

Home | Current Version | Previous Version | Text Only | Print | Product List | Glossary On
Versions: 1 2 3 4 5 6 7 8 9 10 11 12 13 14 15
282
FTUS41 KAKQ 141741
TAFECG
TAF
KECG 141741Z 1418/1518 01009KT P6SM SCT250
     FM142100 05007KT P6SM SCT120 BKN200
     FM150300 06004KT P6SM SCT030 OVC050
     FM150900 04008KT 3SM -SN BKN015 OVC030
     FM151100 06008KT 2SM -SN BR OVC009
     FM151300 07009KT 3SM -RA BR OVC007=

USA.gov is the U.S. government's official web portal to all federal, state and local government web resources and services.